Onion Creek, California Weather observations

Data are for observation ending at time listed.
 Day   Time    Ave.   Ave.  Ave.  Vector   Max.   Stn.    Total    Solar   Ave.   Snow 
  of    of     Air    Rel.  Wind   Wind    Wind   Baro.  Precip.   Rad.    Soil   Depth
Year   Day     Temp.  Hum.  Speed  Dir.    Gust   Pres.                    Temp.       
2015   (PST)    F      %     mph   deg.    mph     mb.     in.     W/m2     F      in. 
---------------------------------------------------------------------------------------  
  90    0:00   39.0    85    1.4    18      2.5   831.6   27.02       0    47.4   999.0
  90    0:10   39.1    85    1.5    34      4.1   831.6   27.02       0    47.3   999.0
  90    0:20   39.1    84    1.2    50      3.0   831.5   27.02       0    47.1   999.0
  90    0:30   38.9    83    1.4    38      3.1   831.4   27.00       0    46.9   999.0
  90    0:40   38.8    82    1.5    29      2.7   831.3   27.02       0    46.8   999.0
  90    0:50   38.5    82    1.9    32      3.0   831.2   27.02       0    46.6   999.0
  90    1:00   38.5    80    1.9    19      3.5   831.0   27.00       0    46.5   999.0
  90    1:10   38.0    80    1.2    29      3.5   830.9   27.02       0    46.3   999.0
  90    1:20   38.0    78    1.7    27      3.9   830.8   27.02       0    46.2   999.0
  90    1:30   37.7    78    1.6    43      3.9   830.9   27.02       0    46.1   999.0
  90    1:40   37.3    78    1.6    27      3.1   830.8   27.02       0    45.9   999.0
  90    1:50   37.1    78    1.5    26      2.6   830.7   27.00       0    45.8   999.0
  90    2:00   36.8    78    1.6    27      2.9   830.7   27.02       0    45.6   999.0
  90    2:10   36.9    77    1.5    21      2.9   830.8   27.00       0    45.5   999.0
  90    2:20   36.6    78    1.0    39      2.6   830.8   27.02       0    45.3   999.0
  90    2:30   36.6    77    1.6    29      3.9   830.8   27.02       0    45.2   999.0
  90    2:40   36.3    77    1.5    33      2.8   830.7   27.02       0    45.0   999.0
  90    2:50   36.2    77    1.8    32      3.1   830.7   27.05       0    44.9   999.0
  90    3:00   36.2    77    1.8    24      3.9   830.6   27.02       0    44.7   999.0
  90    3:10   36.0    76    2.0    26      3.8   830.5   27.02       0    44.6   999.0
  90    3:20   35.4    78    0.9    12      2.2   830.4   27.02       0    44.5   999.0
  90    3:30   35.2    77    1.9    28      3.2   830.4   27.02       0    44.4   999.0
  90    3:40   35.3    76    1.4    30      3.4   830.3   27.02       0    44.2   999.0
  90    3:50   34.9    75    2.0    18      3.7   830.2   27.02       0    44.1   999.0
  90    4:00   34.8    76    2.1    49      3.1   830.2   27.02       0    44.0   999.0
  90    4:10   34.8    76    1.6    23      2.8   830.1   27.02       0    43.8   999.0
  90    4:20   34.4    76    2.0    36      3.1   830.1   27.02       0    43.7   999.0
  90    4:30   34.2    77    1.6    35      3.5   830.1   27.02       0    43.5   999.0
  90    4:40   34.1    77    2.2    27      3.9   830.1   27.00       0    43.4   999.0
  90    4:50   34.0    78    1.7    29      3.9   830.1   27.02       0    43.3   999.0
  90    5:00   33.6    78    1.6    22      2.6   830.1   27.02       0    43.1   999.0
  90    5:10   33.5    77    1.6    28      2.6   830.1   27.02       0    43.0   999.0
  90    5:20   33.3    77    1.8    28      3.2   830.0   27.02       0    42.9   999.0
  90    5:30   33.2    77    1.7    29      3.1   830.0   27.02       0    42.7   999.0
  90    5:40   32.9    78    1.4    45      3.5   830.0   27.02       0    42.6   999.0
  90    5:50   32.9    79    1.8    35      4.2   830.0   27.02       1    42.5   999.0
  90    6:00   33.2    79    2.1    35      3.5   830.1   27.02       4    42.3   999.0
  90    6:10   33.2    80    1.1    22      2.5   830.1   27.02       7    42.2   999.0
  90    6:20   33.0    81    1.9    32      4.1   830.1   27.02      10    42.1   999.0
  90    6:30   33.4    81    2.0    30      4.2   830.2   27.02      13    42.0   999.0
  90    6:40   33.3    81    1.5    24      2.6   830.2   27.00      15    41.9   999.0
  90    6:50   33.4    81    1.4    21      2.6   830.2   27.02      16    41.8   999.0
  90    7:00   33.5    82    1.7    26      3.8   830.3   27.02      18    41.7   999.0
  90    7:10   33.8    82    1.5    27      4.1   830.3   27.02      20    41.6   999.0
  90    7:20   35.7    78    1.3   100      5.0   830.4   27.02      22    41.5   999.0
  90    7:30   37.7    70    1.0    70      3.1   830.4   27.02      26    41.4   999.0
  90    7:40   38.2    70    1.2    82      5.2   830.5   27.02      30    41.3   999.0
  90    7:50   38.8    70    1.0    85      3.2   830.5   27.02      34    41.2   999.0
  90    8:00   39.3    68    0.7    80      2.9   830.5   27.02      40    41.2   999.0
  90    8:10   40.5    64    1.1   150      3.1   830.4   27.05      62    41.1   999.0
  90    8:20   41.5    61    1.1   160      3.2   830.5   27.05     385    41.0   999.0
  90    8:30   44.3    51    3.3   246      9.3   830.7   27.02     519    41.0   999.0
  90    8:40   46.5    43    4.5   255     12.4   830.7   27.02     549    41.0   999.0
  90    8:50   47.2    43    3.4   257      9.4   830.9   27.05     586    41.0   999.0
  90    9:00   47.8    42    4.5   254      9.5   831.0   27.05     618    41.0   999.0
  90    9:10   48.2    40    4.4   260     11.2   831.1   27.05     641    41.1   999.0
  90    9:20   48.6    39    4.5   269     14.2   831.1   27.02     665    41.2   999.0
  90    9:30   48.8    38    5.5   270     14.5   831.2   27.05     696    41.3   999.0
  90    9:40   49.4    38    4.5   252     13.8   831.3   27.02     724    41.5   999.0
  90    9:50   49.6    38    4.3   259      9.9   831.4   27.02     752    41.7   999.0
  90   10:00   49.7    38    4.7   256     12.4   831.5   27.02     781    42.0   999.0
  90   10:10   49.6    39    4.9   264     15.0   831.5   27.02     808    42.3   999.0
  90   10:20   50.1    39    3.9   254     16.2   831.6   27.02     831    42.6   999.0
  90   10:30   50.5    38    4.0   255     12.9   831.7   27.02     848    42.9   999.0
  90   10:40   50.5    37    5.2   256     13.5   831.6   27.02     871    43.3   999.0
  90   10:50   50.3    34    6.2   273     16.2   831.5   27.00     889    43.7   999.0
  90   11:00   50.7    35    4.4   257     11.1   831.6   27.02     899    44.1   999.0
  90   11:10   51.8    34    4.0   260     10.6   831.5   27.02     910    44.5   999.0
  90   11:20   51.7    32    5.7   278     11.8   831.5   27.02     914    44.9   999.0
  90   11:30   52.0    30    5.2   253     15.2   831.4   27.05     926    45.4   999.0
  90   11:40   51.9    27    5.3   254     13.9   831.4   27.05     932    45.8   999.0
  90   11:50   51.6    27    5.0   254     15.1   831.4   27.02     934    46.2   999.0
  90   12:00   51.6    29    4.8   261     17.0   831.4   27.02     938    46.6   999.0
  90   12:10   52.1    29    4.0   262     15.9   831.3   27.02     938    47.0   999.0
  90   12:20   51.7    27    5.2   252     12.6   831.2   27.02     949    47.4   999.0
  90   12:30   52.1    26    4.9   258     15.0   831.2   27.02     947    47.8   999.0
  90   12:40   51.9    27    4.7   258     13.3   831.1   27.02     945    48.2   999.0
  90   12:50   51.5    28    5.5   253     16.7   831.1   27.02     939    48.5   999.0
  90   13:00   51.3    31    6.0   258     16.1   831.1   27.02     926    48.7   999.0
  90   13:10   51.9    33    4.8   261     13.5   831.1   27.02     919    49.0   999.0
  90   13:20   51.5    33    4.6   247     12.1   831.2   27.02     903    49.4   999.0
  90   13:30   51.0    36    5.9   255     16.1   831.2   27.02     890    49.7   999.0
  90   13:40   51.5    38    4.7   250     14.1   831.2   27.00     874    50.0   999.0
  90   13:50   50.9    39    4.9   267     12.1   831.1   27.00     859    50.3   999.0
  90   14:00   50.4    41    5.8   262     16.3   831.1   27.00     841    50.6   999.0
  90   14:10   50.7    40    5.1   264     17.6   831.0   27.02     819    50.9   999.0
  90   14:20   50.6    41    5.5   264     12.3   831.0   27.00     785    51.2   999.0
  90   14:30   50.2    41    5.8   262     16.0   830.9   27.00     753    51.5   999.0
  90   14:40   50.5    44    5.1   244     12.6   830.9   27.00     731    51.7   999.0
  90   14:50   50.3    45    5.1   243     14.6   830.9   27.02     712    51.9   999.0
  90   15:00   50.2    45    5.0   252     15.7   830.8   27.00     688    52.0   999.0
  90   15:10   49.9    46    4.6   256     13.5   830.8   27.02     658    52.0   999.0
  90   15:20   49.3    46    6.7   265     14.2   830.9   27.02     643    52.0   999.0
  90   15:30   48.7    49    5.2   255     13.3   830.9   27.00     617    52.0   999.0
  90   15:40   47.6    54    6.8   261     17.8   830.9   27.02     490    51.9   999.0
  90   15:50   46.4    57    4.1   256     14.8   831.0   27.00     299    51.8   999.0
  90   16:00   46.4    57    5.0   263     18.3   831.1   27.02     437    51.7   999.0
  90   16:10   45.8    55    5.4   258     14.5   831.2   27.02     203    51.5   999.0
  90   16:20   44.2    59    3.1   251      9.7   831.2   27.02     132    51.4   999.0
  90   16:30   44.4    58    3.8   269     10.7   831.2   27.02     166    51.2   999.0
  90   16:40   45.1    55    5.1   268     13.8   831.3   27.02     131    51.1   999.0
  90   16:50   43.5    56    3.7   262     10.9   831.3   27.02      84    50.9   999.0
  90   17:00   42.8    59    1.9   213      5.7   831.3   27.02      59    50.7   999.0
  90   17:10   42.5    58    2.6   258      8.7   831.4   27.00      48    50.6   999.0
  90   17:20   42.8    58    2.1   262      5.8   831.4   27.02      58    50.4   999.0
  90   17:30   42.8    58    2.5   271      6.6   831.4   27.02      57    50.3   999.0
  90   17:40   42.5    59    3.1   264      8.3   831.5   27.02      59    50.1   999.0
  90   17:50   42.1    59    3.0   249      8.7   831.6   27.02      34    49.9   999.0
  90   18:00   40.9    61    1.9   219      5.6   831.6   27.02      21    49.8   999.0
  90   18:10   40.3    62    1.8   236      8.6   831.6   27.00      17    49.6   999.0
  90   18:20   39.7    63    2.6   246      7.6   831.5   27.02       7    49.4   999.0
  90   18:30   39.2    64    1.7   266      4.5   831.5   27.02       3    49.3   999.0
  90   18:40   38.6    67    1.3   227      5.3   831.5   27.02       1    49.1   999.0
  90   18:50   37.9    69    0.7   171      2.6   831.5   27.02       0    48.9   999.0
  90   19:00   37.6    69    1.5   276      4.2   831.5   27.02       0    48.7   999.0
  90   19:10   37.4    69    1.5   167      4.2   831.6   27.02       0    48.5   999.0
  90   19:20   36.8    71    1.9   144      3.4   831.8   27.02       0    48.3   999.0
  90   19:30   36.2    72    1.1   136      2.9   831.9   27.02       0    48.1   999.0
  90   19:40   35.6    74    1.1    94      2.8   832.0   27.00       0    47.9   999.0
  90   19:50   34.8    74    0.7    92      2.3   832.0   27.02       0    47.7   999.0
  90   20:00   34.2    74    1.1    68      2.0   832.1   27.02       0    47.5   999.0
  90   20:10   33.5    75    0.8    70      1.8   832.3   27.02       0    47.3   999.0
  90   20:20   32.7    75    0.8    45      1.5   832.4   27.00       0    47.1   999.0
  90   20:30   31.8    76    0.1    40      0.8   832.4   27.00       0    46.9   999.0
  90   20:40   31.1    77    1.4    40      2.3   832.4   27.02       0    46.7   999.0
  90   20:50   30.6    77    0.2    48      1.1   832.3   27.00       0    46.5   999.0
  90   21:00   29.8    79    0.6    48      2.0   832.2   27.02       0    46.3   999.0
  90   21:10   29.6    78    1.9    64      2.6   832.2   27.02       0    46.0   999.0
  90   21:20   29.6    76    1.1    40      2.4   832.3   27.02       0    45.8   999.0
  90   21:30   29.1    77    0.9    61      1.8   832.3   27.02       0    45.6   999.0
  90   21:40   28.6    78    0.4    51      1.4   832.4   27.02       0    45.4   999.0
  90   21:50   28.0    80    0.0    51      0.7   832.4   27.02       0    45.2   999.0
  90   22:00   27.8    80    0.9    51      1.5   832.4   27.00       0    45.0   999.0
  90   22:10   28.2    79    1.1    40      1.9   832.5   27.00       0    44.8   999.0
  90   22:20   28.0    79    1.2    36      2.0   832.4   27.00       0    44.6   999.0
  90   22:30   28.2    78    1.7    38      2.3   832.4   27.02       0    44.3   999.0
  90   22:40   27.9    78    0.6    38      1.4   832.3   27.02       0    44.1   999.0
  90   22:50   27.6    79    0.6    51      2.0   832.3   27.00       0    43.9   999.0
  90   23:00   27.4    78    0.1    68      0.7   832.3   27.02       0    43.7   999.0
  90   23:10   27.2    79    0.3    68      2.0   832.3   27.00       0    43.5   999.0
  90   23:20   27.1    79    0.4    43      1.5   832.3   27.02       0    43.4   999.0
  90   23:30   27.1    79    0.4    52      1.8   832.2   27.02       0    43.2   999.0

Return to Onion Creek graphs page.


Western Regional Climate Center,wrcc@dri.edu